Time;durP1;ratioP1;P1;durP2;ratioP2;P2;SDS_P1;SDS_P2;PMS_P1;PMS_P2;Temp;Humidity;BMP_temperature;BMP_pressure;BME280_temperature;BME280_humidity;BME280_pressure;Samples;Min_cycle;Max_cycle;Signal;HPM_P1;HPM_P2
2023/04/21 00:01:31;;;;;;;;;;;11.90;94.20;;;;;;5052558;28;20100;-85
2023/04/21 00:03:58;;;;;;;24.60;3.40;;;12.00;94.00;;;;;;5050557;28;19909;-84
2023/04/21 00:06:25;;;;;;;19.77;3.33;;;11.90;94.10;;;;;;5051362;28;20389;-85
2023/04/21 00:08:51;;;;;;;17.45;3.72;;;11.90;94.20;;;;;;5051379;28;20082;-85
2023/04/21 00:11:17;;;;;;;;;;;11.90;94.70;;;;;;5052049;28;20397;-85
2023/04/21 00:13:43;;;;;;;11.55;3.33;;;11.90;94.40;;;;;;5051422;28;19905;-85
2023/04/21 00:16:09;;;;;;;15.80;3.80;;;11.90;94.50;;;;;;5084799;28;20037;-84
2023/04/21 00:18:34;;;;;;;;;;;11.90;94.70;;;;;;5051569;28;20052;-84
2023/04/21 00:21:00;;;;;;;9.82;2.97;;;11.90;94.70;;;;;;5052414;28;19956;-85
2023/04/21 00:23:26;;;;;;;;;;;11.80;94.90;;;;;;5051690;28;20098;-84
2023/04/21 00:25:52;;;;;;;18.30;3.75;;;11.80;95.20;;;;;;5050996;28;20391;-84
2023/04/21 00:28:18;;;;;;;11.75;3.33;;;11.70;95.30;;;;;;5051080;28;20021;-84
2023/04/21 00:30:43;;;;;;;;;;;11.70;95.10;;;;;;5052478;28;20047;-85
2023/04/21 00:33:09;;;;;;;15.52;2.85;;;11.70;95.00;;;;;;5051242;28;19905;-85
2023/04/21 00:35:34;;;;;;;;;;;11.70;95.10;;;;;;5051492;28;20218;-84
2023/04/21 00:38:00;;;;;;;12.15;2.80;;;11.60;95.20;;;;;;5051227;28;20289;-85
2023/04/21 00:40:26;;;;;;;;;;;11.60;95.30;;;;;;5052543;28;20017;-85
2023/04/21 00:42:52;;;;;;;9.15;2.95;;;11.60;95.70;;;;;;5050860;28;20357;-84
2023/04/21 00:45:17;;;;;;;;;;;11.60;95.20;;;;;;5051374;28;20063;-85
2023/04/21 00:47:43;;;;;;;18.73;2.75;;;11.60;95.50;;;;;;5051130;28;20007;-85
2023/04/21 00:50:09;;;;;;;;;;;11.50;95.50;;;;;;5050942;28;20043;-85
2023/04/21 00:52:36;;;;;;;12.80;3.10;;;11.50;95.60;;;;;;5050854;28;20436;-84
2023/04/21 00:55:02;;;;;;;14.85;3.20;;;11.50;95.10;;;;;;5084569;28;20029;-84
2023/04/21 00:57:27;;;;;;;;;;;11.60;94.80;;;;;;5051065;28;20563;-82
2023/04/21 00:59:53;;;;;;;10.68;3.17;;;11.60;94.60;;;;;;5050819;28;19904;-84
2023/04/21 01:02:21;;;;;;;11.32;2.80;;;11.50;94.50;;;;;;5051092;28;20082;-85
2023/04/21 01:04:47;;;;;;;12.50;2.25;;;11.50;94.00;;;;;;5050826;28;20028;-85
2023/04/21 01:07:12;;;;;;;;;;;11.50;93.80;;;;;;5051084;28;20021;-84
2023/04/21 01:09:38;;;;;;;11.07;3.33;;;11.50;93.10;;;;;;5050731;28;19904;-85
2023/04/21 01:12:04;;;;;;;;;;;11.50;93.00;;;;;;5051086;28;20029;-85
2023/04/21 01:14:30;;;;;;;14.95;3.13;;;11.60;92.20;;;;;;5050977;28;19905;-84
2023/04/21 01:16:56;;;;;;;;;;;11.60;91.80;;;;;;5053109;28;20033;-84
2023/04/21 01:19:23;;;;;;;10.40;2.78;;;11.60;91.20;;;;;;5051804;28;19904;-85
2023/04/21 01:21:52;;;;;;;13.05;2.67;;;11.60;90.50;;;;;;5054170;28;20029;-85
2023/04/21 01:24:18;;;;;;;13.90;2.67;;;11.50;90.00;;;;;;5054311;28;20082;-84
2023/04/21 01:26:48;;;;;;;16.67;2.80;;;11.50;89.60;;;;;;5053877;28;20115;-85
2023/04/21 01:29:14;;;;;;;14.43;2.72;;;11.60;87.30;;;;;;5053783;28;20029;-84
2023/04/21 01:31:40;;;;;;;16.50;2.40;;;11.50;85.80;;;;;;5053871;28;20458;-84
2023/04/21 01:34:06;;;;;;;11.38;2.80;;;11.60;84.00;;;;;;5053866;28;20040;-84
2023/04/21 01:36:32;;;;;;;;;;;11.60;83.00;;;;;;5054332;28;20021;-84
2023/04/21 01:38:57;;;;;;;16.77;3.13;;;11.70;82.40;;;;;;5053880;28;19930;-84
2023/04/21 01:41:23;;;;;;;;;;;11.60;82.20;;;;;;5053330;28;20472;-85
2023/04/21 01:43:49;;;;;;;26.15;3.95;;;11.60;82.00;;;;;;5053526;28;19904;-84
2023/04/21 01:46:14;;;;;;;;;;;11.60;82.10;;;;;;5054182;28;20588;-84
2023/04/21 01:48:40;;;;;;;8.80;2.47;;;11.70;79.10;;;;;;5053922;28;19905;-84
2023/04/21 01:51:05;;;;;;;;;;;11.90;77.40;;;;;;5054045;28;20037;-84
2023/04/21 01:53:31;;;;;;;11.35;2.45;;;11.90;76.90;;;;;;5053887;28;19905;-85
2023/04/21 01:55:57;;;;;;;;;;;12.00;75.80;;;;;;5053510;28;20048;-84
2023/04/21 01:58:22;;;;;;;21.40;2.83;;;12.00;75.70;;;;;;5053435;28;19905;-85
2023/04/21 02:00:48;;;;;;;;;;;12.00;74.90;;;;;;5053666;28;20057;-84
2023/04/21 02:03:13;;;;;;;11.38;2.55;;;12.10;74.80;;;;;;5053606;28;19909;-85
2023/04/21 02:05:39;;;;;;;;;;;12.10;74.80;;;;;;5053311;28;20583;-82
2023/04/21 02:08:05;;;;;;;13.98;2.58;;;12.10;74.80;;;;;;5052599;28;19915;-84
2023/04/21 02:10:31;;;;;;;12.30;2.10;;;12.10;74.30;;;;;;5053265;28;20025;-84
2023/04/21 02:12:56;;;;;;;;;;;12.10;73.60;;;;;;5054072;28;20021;-84
2023/04/21 02:15:22;;;;;;;19.52;2.80;;;12.10;74.10;;;;;;5053067;28;20336;-84
2023/04/21 02:17:48;;;;;;;;;;;12.00;74.50;;;;;;5053575;28;20429;-84
2023/04/21 02:20:14;;;;;;;29.02;2.58;;;12.10;73.10;;;;;;5053320;28;19992;-84
2023/04/21 02:22:39;;;;;;;;;;;12.10;72.60;;;;;;5055870;28;20147;-85
2023/04/21 02:25:05;;;;;;;17.45;2.47;;;12.20;72.30;;;;;;5054446;28;20000;-84
2023/04/21 02:27:31;;;;;;;;;;;12.10;73.00;;;;;;5086356;28;20520;-84
2023/04/21 02:29:56;;;;;;;11.63;2.75;;;12.10;71.80;;;;;;5052781;28;19955;-84
2023/04/21 02:32:22;;;;;;;;;;;12.20;72.50;;;;;;5053747;28;20047;-84
2023/04/21 02:34:47;;;;;;;21.65;2.83;;;12.00;72.80;;;;;;5051700;28;20335;-84
2023/04/21 02:37:13;;;;;;;;;;;12.00;72.30;;;;;;5053245;28;20490;-84
2023/04/21 02:39:39;;;;;;;13.95;2.00;;;12.00;72.60;;;;;;5053038;28;20373;-82
2023/04/21 02:42:04;;;;;;;;;;;11.90;72.70;;;;;;5053149;28;20021;-84
2023/04/21 02:44:30;;;;;;;16.73;2.50;;;11.70;73.60;;;;;;5052776;28;20042;-85
2023/04/21 02:46:55;;;;;;;;;;;11.60;73.90;;;;;;5053214;28;20021;-85
2023/04/21 02:49:21;;;;;;;17.52;3.55;;;11.50;74.30;;;;;;5052567;28;19940;-83
2023/04/21 02:51:46;;;;;;;;;;;11.50;74.70;;;;;;5053043;28;20137;-84
2023/04/21 02:54:12;;;;;;;17.55;2.08;;;11.50;74.90;;;;;;5052464;28;20411;-83
2023/04/21 02:56:38;;;;;;;;;;;11.50;74.90;;;;;;5052622;28;20059;-84
2023/04/21 02:59:03;;;;;;;11.93;1.98;;;11.40;75.50;;;;;;5053703;28;19916;-85
2023/04/21 03:01:29;;;;;;;;;;;11.60;74.10;;;;;;5052830;28;20053;-84
2023/04/21 03:03:54;;;;;;;12.40;2.95;;;11.70;73.60;;;;;;5052081;28;20384;-85
2023/04/21 03:06:20;;;;;;;;;;;11.70;73.90;;;;;;5052599;28;20021;-84
2023/04/21 03:08:45;;;;;;;16.05;2.90;;;11.70;73.50;;;;;;5052208;28;19905;-84
2023/04/21 03:11:11;;;;;;;;;;;11.60;73.90;;;;;;5052242;28;20055;-84
2023/04/21 03:13:36;;;;;;;8.68;2.30;;;11.50;74.70;;;;;;5051560;28;20285;-84
2023/04/21 03:16:02;;;;;;;;;;;11.50;74.80;;;;;;5052045;28;20039;-84
2023/04/21 03:18:28;;;;;;;16.45;2.55;;;11.40;75.00;;;;;;5051835;28;19912;-84
2023/04/21 03:20:58;;;;;;;;;;;11.40;75.10;;;;;;5052467;28;20032;-84
2023/04/21 03:23:24;;;;;;;19.08;3.00;;;11.40;75.10;;;;;;5051935;28;19909;-84
2023/04/21 03:25:49;;;;;;;;;;;11.50;74.80;;;;;;5052174;28;20028;-85
2023/04/21 03:28:15;;;;;;;13.35;2.60;;;11.50;75.20;;;;;;5051812;28;19958;-85
2023/04/21 03:30:41;;;;;;;;;;;11.50;75.10;;;;;;5053014;28;20025;-84
2023/04/21 03:33:06;;;;;;;11.65;2.00;;;11.40;75.40;;;;;;5051081;28;19911;-85
2023/04/21 03:35:33;;;;;;;;;;;11.40;76.00;;;;;;5049468;28;20025;-85
2023/04/21 03:37:58;;;;;;;14.88;2.97;;;11.30;76.60;;;;;;5050458;28;20008;-84
2023/04/21 03:40:24;;;;;;;;;;;11.20;77.20;;;;;;5052050;28;20064;-84
2023/04/21 03:42:50;;;;;;;9.40;2.40;;;11.10;77.90;;;;;;5052013;28;19908;-85
2023/04/21 03:45:18;;;;;;;;;;;11.00;78.50;;;;;;5052075;28;20083;-84
2023/04/21 03:47:44;;;;;;;13.18;2.25;;;11.00;78.30;;;;;;5051565;28;20391;-84
2023/04/21 03:50:09;;;;;;;;;;;11.00;78.80;;;;;;5051683;28;20092;-84
2023/04/21 03:52:35;;;;;;;11.95;2.70;;;10.90;79.70;;;;;;5051212;28;19968;-84
2023/04/21 03:55:00;;;;;;;;;;;10.80;80.70;;;;;;5051939;28;20032;-85
2023/04/21 03:57:27;;;;;;;19.88;3.78;;;10.70;81.30;;;;;;5051364;28;19947;-84
2023/04/21 03:59:53;;;;;;;;;;;10.70;81.30;;;;;;5086602;28;20029;-84
2023/04/21 04:02:18;;;;;;;13.15;3.13;;;10.70;81.70;;;;;;5051112;28;19915;-85
2023/04/21 04:04:44;;;;;;;;;;;10.60;82.50;;;;;;5051678;28;20465;-83
2023/04/21 04:07:10;;;;;;;20.63;2.83;;;10.60;82.40;;;;;;5051380;28;19927;-84
2023/04/21 04:09:36;;;;;;;;;;;10.60;82.70;;;;;;5051748;28;20029;-85
2023/04/21 04:12:02;;;;;;;14.73;2.63;;;10.70;82.60;;;;;;5052389;28;19932;-84
2023/04/21 04:14:28;;;;;;;20.50;3.50;;;10.70;82.70;;;;;;5051495;28;20027;-85
2023/04/21 04:16:54;;;;;;;20.10;3.30;;;10.80;82.60;;;;;;5051391;28;20083;-84
2023/04/21 04:19:20;;;;;;;;;;;10.80;82.20;;;;;;5051676;28;20076;-84
2023/04/21 04:21:45;;;;;;;26.95;3.92;;;10.80;82.50;;;;;;5051084;28;20385;-85
2023/04/21 04:24:12;;;;;;;;;;;10.90;82.30;;;;;;5051395;28;20021;-85
2023/04/21 04:26:38;;;;;;;23.38;3.72;;;10.90;82.60;;;;;;5049895;28;20260;-84
2023/04/21 04:29:09;;;;;;;;;;;10.90;82.70;;;;;;5049976;28;20114;-84
2023/04/21 04:31:35;;;;;;;18.65;2.72;;;10.90;83.20;;;;;;5050954;28;19908;-84
2023/04/21 04:34:00;;;;;;;;;;;11.00;83.30;;;;;;5050955;28;20048;-84
2023/04/21 04:36:27;;;;;;;16.20;3.03;;;11.20;82.70;;;;;;5051062;28;19963;-85
2023/04/21 04:38:53;;;;;;;17.58;3.15;;;11.50;81.40;;;;;;5049936;28;20115;-84
2023/04/21 04:41:19;;;;;;;;;;;11.80;80.00;;;;;;5050567;28;20616;-84
2023/04/21 04:43:46;;;;;;;23.48;3.13;;;12.10;77.10;;;;;;5049306;28;20049;-85
2023/04/21 04:46:12;;;;;;;16.38;2.70;;;12.30;76.30;;;;;;5050283;28;20405;-84
2023/04/21 04:48:37;;;;;;;;;;;12.60;74.90;;;;;;5050010;28;20025;-85
2023/04/21 04:51:04;;;;;;;16.90;2.97;;;12.80;73.40;;;;;;5054003;28;19915;-83
2023/04/21 04:53:30;;;;;;;20.33;3.00;;;13.20;71.30;;;;;;5053515;28;20087;-83
2023/04/21 04:55:57;;;;;;;;;;;13.60;68.40;;;;;;5053852;28;20052;-84
2023/04/21 04:58:23;;;;;;;17.30;3.22;;;13.70;67.80;;;;;;5054009;28;20497;-84
2023/04/21 05:00:49;;;;;;;;;;;13.90;66.30;;;;;;5052670;28;20048;-83
2023/04/21 05:03:14;;;;;;;13.50;2.72;;;14.00;65.80;;;;;;5053057;28;19904;-84
2023/04/21 05:05:40;;;;;;;;;;;14.20;65.60;;;;;;5053196;28;20090;-84
2023/04/21 05:08:05;;;;;;;29.67;3.45;;;14.40;63.60;;;;;;5053512;28;19909;-83
2023/04/21 05:10:31;;;;;;;;;;;14.70;63.70;;;;;;5052567;28;20039;-84
2023/04/21 05:12:57;;;;;;;13.23;2.60;;;14.90;62.80;;;;;;5052571;28;19916;-83
2023/04/21 05:15:22;;;;;;;;;;;15.20;62.00;;;;;;5052282;28;20119;-85
2023/04/21 05:17:48;;;;;;;14.95;2.25;;;15.60;60.70;;;;;;5052144;28;19913;-84
2023/04/21 05:20:14;;;;;;;27.13;3.45;;;16.10;59.80;;;;;;5052439;28;20147;-83
2023/04/21 05:22:40;;;;;;;16.88;2.30;;;16.30;57.60;;;;;;5053578;28;20114;-86
2023/04/21 05:25:06;;;;;;;12.55;2.63;;;16.60;57.50;;;;;;5053310;28;20503;-85
2023/04/21 05:27:32;;;;;;;13.70;2.80;;;16.90;55.60;;;;;;5053501;28;20021;-85
2023/04/21 05:29:59;;;;;;;17.73;2.78;;;17.10;55.20;;;;;;5052803;28;20033;-84
2023/04/21 05:32:24;;;;;;;11.55;2.60;;;17.20;54.00;;;;;;5053135;28;20021;-85
2023/04/21 05:34:50;;;;;;;14.82;3.38;;;17.30;53.10;;;;;;5053543;28;20382;-85
2023/04/21 05:37:16;;;;;;;17.13;2.50;;;17.60;52.90;;;;;;5052013;28;20043;-84
2023/04/21 05:39:42;;;;;;;11.90;2.75;;;17.90;52.00;;;;;;5053014;28;20104;-85
2023/04/21 05:42:11;;;;;;;14.75;3.35;;;18.30;48.90;;;;;;5053020;28;20513;-84
2023/04/21 05:44:37;;;;;;;18.65;3.03;;;18.50;49.00;;;;;;5053664;28;20392;-86
2023/04/21 05:47:06;;;;;;;11.43;2.22;;;18.90;47.20;;;;;;5052647;28;20032;-86
2023/04/21 05:49:32;;;;;;;17.88;3.03;;;19.40;43.50;;;;;;5051508;28;20036;-85
2023/04/21 05:51:58;;;;;;;12.05;2.60;;;19.60;44.60;;;;;;5050732;28;20033;-86
2023/04/21 05:54:24;;;;;;;18.38;3.08;;;19.80;44.70;;;;;;5051216;28;20064;-85
2023/04/21 05:56:50;;;;;;;16.85;3.38;;;19.60;42.90;;;;;;5051413;28;20045;-85
2023/04/21 05:59:16;;;;;;;21.88;3.00;;;19.40;43.00;;;;;;5052303;28;20033;-85
2023/04/21 06:01:42;;;;;;;15.05;3.63;;;19.90;43.60;;;;;;5050904;28;20029;-86
2023/04/21 06:04:08;;;;;;;17.80;3.30;;;20.50;41.00;;;;;;5051090;28;20024;-85
2023/04/21 06:06:34;;;;;;;12.65;2.78;;;21.10;38.40;;;;;;5052035;28;20082;-84
2023/04/21 06:08:59;;;;;;;15.90;3.25;;;21.20;39.80;;;;;;5052193;28;20025;-86
2023/04/21 06:11:25;;;;;;;11.30;2.53;;;21.10;39.50;;;;;;5051794;28;20028;-85
2023/04/21 06:13:57;;;;;;;14.77;3.85;;;21.50;37.60;;;;;;5050705;28;20029;-84
2023/04/21 06:16:22;;;;;;;9.90;2.60;;;21.70;36.30;;;;;;5051739;28;20032;-88
2023/04/21 06:18:48;;;;;;;16.38;2.80;;;21.90;36.90;;;;;;5051417;28;20028;-85
2023/04/21 06:21:14;;;;;;;25.48;2.80;;;22.10;36.70;;;;;;5053528;28;20397;-87
2023/04/21 06:23:41;;;;;;;14.27;2.80;;;22.70;35.60;;;;;;5051387;28;20516;-86
2023/04/21 06:26:07;;;;;;;11.43;2.85;;;23.20;33.90;;;;;;5052568;28;20025;-83
2023/04/21 06:28:33;;;;;;;16.55;3.42;;;22.80;33.60;;;;;;5050664;28;20025;-83
2023/04/21 06:31:00;;;;;;;10.77;2.38;;;22.00;34.30;;;;;;5051256;28;20024;-85
2023/04/21 06:33:26;;;;;;;15.23;2.83;;;21.20;36.40;;;;;;5051107;28;20028;-84
2023/04/21 06:35:53;;;;;;;10.50;2.40;;;21.10;37.60;;;;;;5050721;28;20543;-85
2023/04/21 06:38:19;;;;;;;12.20;3.40;;;21.50;36.70;;;;;;5051080;28;20123;-85
2023/04/21 06:40:44;;;;;;;10.95;2.60;;;22.20;35.10;;;;;;5051917;28;20025;-86
2023/04/21 06:43:10;;;;;;;12.35;2.92;;;22.40;34.20;;;;;;5050651;28;20032;-84
2023/04/21 06:45:36;;;;;;;8.77;2.97;;;22.50;35.10;;;;;;5051206;28;20495;-84
2023/04/21 06:48:01;;;;;;;7.47;3.10;;;22.60;33.60;;;;;;5049832;28;20501;-85
2023/04/21 06:50:27;;;;;;;9.23;2.97;;;22.70;34.50;;;;;;5052335;28;20363;-86
2023/04/21 06:52:53;;;;;;;8.15;2.88;;;22.90;34.30;;;;;;5051499;28;20057;-87
2023/04/21 06:55:19;;;;;;;14.30;3.00;;;22.80;34.00;;;;;;5051045;28;20033;-87
2023/04/21 06:57:44;;;;;;;9.98;3.05;;;22.70;34.40;;;;;;5052007;28;20040;-87
2023/04/21 07:00:11;;;;;;;20.10;3.35;;;22.80;34.20;;;;;;5050721;28;20031;-86
2023/04/21 07:02:36;;;;;;;6.20;2.88;;;22.90;32.90;;;;;;5050994;28;20112;-87
2023/04/21 07:05:02;;;;;;;10.32;3.33;;;22.60;33.10;;;;;;5051206;28;20104;-85
2023/04/21 07:07:28;;;;;;;8.98;3.45;;;22.40;33.70;;;;;;5051680;28;20059;-85
2023/04/21 07:09:54;;;;;;;10.93;3.50;;;22.20;34.50;;;;;;5050747;28;20029;-85
2023/04/21 07:12:20;;;;;;;11.60;2.78;;;22.10;34.30;;;;;;5049864;28;20482;-88
2023/04/21 07:14:45;;;;;;;11.82;3.33;;;22.30;34.70;;;;;;5050059;28;20021;-88
2023/04/21 07:17:11;;;;;;;14.73;3.47;;;22.00;34.30;;;;;;5050868;28;20040;-87
2023/04/21 07:19:38;;;;;;;7.25;2.38;;;22.10;34.70;;;;;;5050401;28;20029;-85
2023/04/21 07:22:04;;;;;;;8.50;2.70;;;22.20;35.10;;;;;;5050892;28;20029;-85
2023/04/21 07:24:30;;;;;;;8.65;2.88;;;22.60;33.60;;;;;;5050693;28;20110;-85
2023/04/21 07:26:57;;;;;;;8.23;3.80;;;22.50;33.40;;;;;;5050541;28;20029;-85
2023/04/21 07:29:22;;;;;;;17.25;3.45;;;22.50;33.70;;;;;;5050470;28;20025;-85
2023/04/21 07:31:48;;;;;;;8.00;2.42;;;22.50;33.30;;;;;;5051003;28;20031;-85
2023/04/21 07:34:14;;;;;;;14.13;3.67;;;22.30;34.50;;;;;;5050108;28;20075;-85
2023/04/21 07:36:40;;;;;;;8.15;2.97;;;22.70;33.90;;;;;;5050087;28;20416;-86
2023/04/21 07:39:06;;;;;;;11.85;4.00;;;22.80;33.30;;;;;;5050973;28;20545;-85
2023/04/21 07:41:32;;;;;;;15.00;3.50;;;22.60;34.40;;;;;;5049879;28;20067;-85
2023/04/21 07:43:58;;;;;;;12.77;3.05;;;22.70;34.40;;;;;;5049784;28;20033;-85
2023/04/21 07:46:28;;;;;;;8.48;2.88;;;23.00;33.10;;;;;;5050130;28;20037;-86
2023/04/21 07:48:55;;;;;;;13.18;2.97;;;23.20;33.30;;;;;;5050562;28;20055;-84
2023/04/21 07:51:21;;;;;;;11.55;3.10;;;23.40;32.40;;;;;;5049811;28;20113;-84
2023/04/21 07:53:47;;;;;;;8.18;2.35;;;23.10;32.90;;;;;;5052284;28;20021;-87
2023/04/21 07:56:13;;;;;;;9.77;2.95;;;23.30;33.50;;;;;;5049233;28;20110;-85
2023/04/21 07:58:38;;;;;;;11.88;3.72;;;23.70;31.70;;;;;;5051082;28;20013;-85
2023/04/21 08:01:04;;;;;;;9.98;2.95;;;23.80;31.30;;;;;;5049572;28;20052;-87
2023/04/21 08:03:30;;;;;;;5.07;2.92;;;23.70;31.50;;;;;;5049657;28;20063;-86
2023/04/21 08:05:56;;;;;;;7.97;2.90;;;23.40;31.40;;;;;;5049123;28;20106;-83
2023/04/21 08:08:21;;;;;;;13.98;4.13;;;23.10;33.70;;;;;;5047986;28;20061;-84
2023/04/21 08:10:47;;;;;;;5.63;3.33;;;23.20;32.50;;;;;;5049229;28;20029;-83
2023/04/21 08:13:13;;;;;;;15.70;3.35;;;23.20;33.30;;;;;;5048540;28;20024;-83
2023/04/21 08:15:38;;;;;;;6.57;2.88;;;23.40;33.30;;;;;;5049356;28;20036;-84
2023/04/21 08:18:04;;;;;;;12.48;3.45;;;23.60;33.30;;;;;;5050462;28;20497;-83
2023/04/21 08:20:30;;;;;;;16.17;3.22;;;23.90;33.30;;;;;;5050196;28;20078;-84
2023/04/21 08:22:57;;;;;;;9.77;3.53;;;24.20;32.00;;;;;;5050217;28;20029;-83
2023/04/21 08:25:22;;;;;;;13.05;2.88;;;24.60;31.80;;;;;;5051835;28;20032;-85
2023/04/21 08:27:49;;;;;;;6.00;2.78;;;24.50;31.40;;;;;;5053878;28;20029;-84
2023/04/21 08:30:15;;;;;;;6.00;2.88;;;24.10;32.00;;;;;;5053034;28;20082;-84
2023/04/21 08:32:41;;;;;;;6.45;2.85;;;24.20;32.30;;;;;;5053762;28;20115;-85
2023/04/21 08:35:07;;;;;;;7.47;3.90;;;24.00;31.30;;;;;;5053080;28;20036;-85
2023/04/21 08:37:36;;;;;;;12.55;2.80;;;24.00;30.30;;;;;;5055357;28;20055;-84
2023/04/21 08:40:03;;;;;;;8.75;2.88;;;23.20;32.10;;;;;;5053582;28;20021;-84
2023/04/21 08:42:29;;;;;;;7.57;2.50;;;22.40;34.90;;;;;;5052676;28;20174;-84
2023/04/21 08:44:55;;;;;;;10.27;3.28;;;21.80;34.90;;;;;;5053278;28;20072;-83
2023/04/21 08:47:23;;;;;;;7.85;3.25;;;21.10;35.70;;;;;;5055259;28;20103;-84
2023/04/21 08:49:50;;;;;;;9.40;3.05;;;20.50;36.20;;;;;;5053178;28;20106;-84
2023/04/21 08:52:17;;;;;;;13.70;2.97;;;20.20;37.40;;;;;;5054020;28;20587;-84
2023/04/21 08:54:42;;;;;;;10.88;3.17;;;20.00;37.70;;;;;;5053327;28;20025;-85
2023/04/21 08:57:08;;;;;;;9.20;2.75;;;19.90;38.20;;;;;;5053156;28;20510;-82
2023/04/21 08:59:34;;;;;;;11.93;2.88;;;19.70;37.60;;;;;;5055125;28;20033;-85
2023/04/21 09:02:17;;;;;;;17.55;3.30;;;19.70;38.40;;;;;;5053716;28;20033;-81
2023/04/21 09:04:51;;;;;;;14.48;3.72;;;19.80;39.10;;;;;;5053478;28;20028;-86
2023/04/21 09:07:38;;;;;;;8.45;2.88;;;20.60;38.50;;;;;;5055737;28;20047;-86
2023/04/21 09:10:04;;;;;;;9.48;2.92;;;22.10;35.70;;;;;;5053623;28;20040;-85
2023/04/21 09:12:30;;;;;;;10.27;3.00;;;22.80;34.20;;;;;;5052423;28;20029;-85
2023/04/21 09:14:59;;;;;;;8.45;2.83;;;23.30;34.20;;;;;;5052801;28;20036;-85
2023/04/21 09:17:35;;;;;;;8.55;3.20;;;23.30;33.90;;;;;;5051216;28;20183;-83
2023/04/21 09:20:16;;;;;;;7.03;3.20;;;22.80;34.10;;;;;;5051804;28;20636;-84
2023/04/21 09:22:43;;;;;;;8.25;3.35;;;22.60;32.40;;;;;;5052962;28;20033;-86
2023/04/21 09:25:09;;;;;;;11.38;3.40;;;21.90;33.80;;;;;;5054478;28;20043;-85
2023/04/21 09:27:35;;;;;;;13.02;3.17;;;21.50;33.50;;;;;;5053657;28;20063;-86
2023/04/21 09:30:06;;;;;;;10.25;3.70;;;21.20;34.10;;;;;;5054427;28;20036;-82
2023/04/21 09:32:37;;;;;;;8.00;3.60;;;20.70;34.70;;;;;;5053439;28;20421;-84
2023/04/21 09:35:03;;;;;;;10.57;3.03;;;20.30;35.10;;;;;;5051967;28;20120;-85
2023/04/21 09:37:33;;;;;;;10.18;2.75;;;19.70;36.80;;;;;;5052880;28;20041;-85
2023/04/21 09:39:58;;;;;;;7.25;2.78;;;19.40;37.70;;;;;;5054302;28;20029;-85
2023/04/21 09:42:29;;;;;;;6.63;2.92;;;19.10;39.30;;;;;;5054793;28;20451;-85
2023/04/21 09:44:55;;;;;;;8.85;2.85;;;19.00;39.00;;;;;;5054740;28;20068;-85
2023/04/21 09:47:21;;;;;;;11.90;2.92;;;19.00;40.10;;;;;;5056348;28;20108;-85
2023/04/21 09:49:50;;;;;;;11.00;3.05;;;19.00;39.30;;;;;;5057096;28;20028;-85
2023/04/21 09:52:21;;;;;;;10.48;2.88;;;19.10;39.90;;;;;;5056212;28;20051;-84
2023/04/21 09:54:57;;;;;;;10.73;3.35;;;19.30;38.60;;;;;;5053704;28;20032;-84
2023/04/21 09:57:25;;;;;;;9.10;3.00;;;19.50;39.40;;;;;;5052420;28;20406;-85
2023/04/21 10:00:12;;;;;;;12.38;2.78;;;19.80;37.70;;;;;;5052255;28;20586;-85
2023/04/21 10:02:49;;;;;;;12.90;2.70;;;19.80;37.80;;;;;;5052540;28;20068;-84
2023/04/21 10:05:15;;;;;;;7.97;4.45;;;19.80;37.70;;;;;;5054011;28;20021;-85
2023/04/21 10:07:40;;;;;;;12.13;4.22;;;19.60;38.30;;;;;;5052876;28;20756;-85
2023/04/21 10:10:10;;;;;;;5.97;3.00;;;19.70;38.80;;;;;;5052384;28;20025;-84
2023/04/21 10:12:36;;;;;;;9.43;2.70;;;19.60;38.50;;;;;;5051850;28;20033;-83
2023/04/21 10:15:04;;;;;;;7.43;3.05;;;19.70;38.50;;;;;;5053083;28;20021;-83
2023/04/21 10:17:35;;;;;;;6.57;2.83;;;19.60;39.40;;;;;;5052417;28;20037;-85
2023/04/21 10:20:05;;;;;;;9.43;3.05;;;19.50;39.60;;;;;;5052350;28;20478;-84
2023/04/21 10:22:33;;;;;;;12.10;3.13;;;19.50;38.30;;;;;;5052422;28;20025;-85
2023/04/21 10:25:01;;;;;;;6.95;2.88;;;19.40;38.80;;;;;;5051635;28;20056;-85
2023/04/21 10:27:40;;;;;;;5.57;2.65;;;19.40;39.10;;;;;;5049123;28;20507;-83
2023/04/21 10:30:27;;;;;;;10.52;2.88;;;19.50;39.20;;;;;;5050637;28;20035;-82
2023/04/21 10:33:22;;;;;;;41.85;6.03;;;19.80;37.60;;;;;;5050650;28;20029;-83
2023/04/21 10:36:03;;;;;;;10.43;2.63;;;19.80;38.40;;;;;;5050096;28;20047;-83
2023/04/21 10:38:43;;;;;;;11.18;3.45;;;19.90;38.00;;;;;;5051790;28;20040;-82
2023/04/21 10:41:26;;;;;;;5.70;2.70;;;19.80;38.00;;;;;;5050930;28;20032;-83
2023/04/21 10:43:52;;;;;;;10.93;2.90;;;19.60;38.20;;;;;;5050539;28;20402;-83
2023/04/21 10:46:35;;;;;;;7.57;3.15;;;19.40;39.10;;;;;;5050707;28;20040;-82
2023/04/21 10:49:11;;;;;;;6.80;2.90;;;19.20;39.80;;;;;;5052289;28;20477;-83
2023/04/21 10:51:56;;;;;;;7.45;3.65;;;19.20;39.40;;;;;;5050656;28;20118;-84
2023/04/21 10:54:22;;;;;;;8.20;3.63;;;19.10;39.30;;;;;;5051355;28;20448;-83
2023/04/21 10:56:52;;;;;;;10.30;3.13;;;18.90;39.90;;;;;;5051063;28;20571;-83
2023/04/21 10:59:19;;;;;;;14.60;3.05;;;18.80;40.10;;;;;;5050826;28;20071;-84
2023/04/21 11:01:44;;;;;;;6.32;3.33;;;18.80;40.00;;;;;;5051105;28;20032;-83
2023/04/21 11:04:14;;;;;;;10.00;3.05;;;18.80;40.40;;;;;;5050744;28;20032;-82
2023/04/21 11:06:40;;;;;;;10.07;3.15;;;18.60;41.70;;;;;;5049768;28;20127;-84
2023/04/21 11:09:06;;;;;;;6.03;2.95;;;18.60;42.00;;;;;;5049769;28;20462;-83
2023/04/21 11:11:32;;;;;;;4.80;2.65;;;18.50;40.90;;;;;;5049660;28;20481;-82
2023/04/21 11:14:01;;;;;;;6.90;2.60;;;18.50;40.40;;;;;;5048886;28;20113;-82
2023/04/21 11:16:27;;;;;;;5.85;2.72;;;18.50;40.50;;;;;;5050002;28;20036;-84
2023/04/21 11:18:55;;;;;;;4.90;2.75;;;18.50;40.90;;;;;;5050265;28;20021;-83
2023/04/21 11:21:23;;;;;;;8.60;2.80;;;18.60;40.80;;;;;;5050901;28;20025;-84
2023/04/21 11:23:53;;;;;;;11.05;2.72;;;18.90;40.30;;;;;;5051667;28;20029;-84
2023/04/21 11:26:49;;;;;;;7.55;3.47;;;19.10;40.10;;;;;;5051771;28;20017;-84
2023/04/21 11:29:15;;;;;;;10.05;3.28;;;19.40;40.00;;;;;;5038134;28;20041;-84
2023/04/21 11:31:44;;;;;;;10.75;3.35;;;19.50;39.00;;;;;;5051067;28;20477;-84
2023/04/21 11:34:10;;;;;;;8.13;2.80;;;19.50;38.50;;;;;;5051216;28;20025;-84
2023/04/21 11:36:38;;;;;;;13.80;4.07;;;19.60;38.40;;;;;;5049900;28;20029;-84
2023/04/21 11:39:08;;;;;;;8.05;2.72;;;19.70;37.00;;;;;;5050763;28;20029;-83
2023/04/21 11:41:35;;;;;;;9.38;3.58;;;19.60;36.90;;;;;;5051704;28;20028;-84
2023/04/21 11:44:01;;;;;;;9.10;2.92;;;19.90;38.10;;;;;;5049830;28;20033;-84
2023/04/21 11:46:28;;;;;;;9.50;2.80;;;20.30;36.70;;;;;;5049848;28;20036;-84
2023/04/21 11:49:01;;;;;;;6.55;2.75;;;20.60;36.50;;;;;;5049523;28;20512;-83
2023/04/21 11:51:38;;;;;;;8.50;2.75;;;21.10;37.60;;;;;;5050749;28;20025;-82
2023/04/21 11:54:05;;;;;;;14.35;2.85;;;21.60;37.40;;;;;;5048883;28;20025;-84
2023/04/21 11:56:39;;;;;;;7.57;2.90;;;21.80;35.60;;;;;;5049466;28;20080;-83
2023/04/21 11:59:07;;;;;;;8.93;2.80;;;21.80;34.90;;;;;;5050328;28;20055;-84
2023/04/21 12:01:33;;;;;;;10.68;2.85;;;21.70;35.60;;;;;;5049436;28;20029;-82
2023/04/21 12:03:59;;;;;;;10.50;2.70;;;21.50;33.30;;;;;;5049253;28;20405;-83
2023/04/21 12:06:30;;;;;;;6.97;3.15;;;21.30;33.50;;;;;;5049442;28;20036;-83
2023/04/21 12:09:00;;;;;;;8.07;3.13;;;21.20;33.20;;;;;;5049597;28;20017;-84
2023/04/21 12:11:30;;;;;;;6.97;3.10;;;21.00;33.30;;;;;;5048974;28;20040;-82
2023/04/21 12:14:00;;;;;;;6.55;3.85;;;20.80;33.50;;;;;;5048057;28;20029;-84
2023/04/21 12:16:27;;;;;;;6.70;3.90;;;20.80;32.50;;;;;;5048588;28;20401;-83
2023/04/21 12:18:53;;;;;;;6.22;3.08;;;20.80;33.20;;;;;;5048521;28;20039;-84
2023/04/21 12:21:19;;;;;;;14.45;2.90;;;21.00;34.40;;;;;;5049670;28;20025;-83
2023/04/21 12:23:45;;;;;;;7.97;3.53;;;21.30;34.20;;;;;;5049650;28;20051;-84
2023/04/21 12:26:11;;;;;;;5.03;2.78;;;21.30;33.20;;;;;;5049902;28;20556;-84
2023/04/21 12:28:37;;;;;;;9.52;3.25;;;21.20;33.70;;;;;;5049715;28;20557;-85
2023/04/21 12:31:04;;;;;;;8.02;3.25;;;21.20;32.60;;;;;;5049529;28;20021;-83
2023/04/21 12:33:30;;;;;;;5.63;2.60;;;20.80;33.00;;;;;;5049285;28;20052;-84
2023/04/21 12:35:56;;;;;;;9.35;3.28;;;20.70;34.00;;;;;;5049016;28;20461;-84
2023/04/21 12:38:21;;;;;;;4.22;2.38;;;20.20;32.90;;;;;;5049338;28;20044;-84
2023/04/21 12:40:48;;;;;;;9.57;3.28;;;20.30;34.70;;;;;;5049247;28;20025;-84
2023/04/21 12:43:13;;;;;;;5.72;2.60;;;20.50;34.60;;;;;;5048310;28;20040;-84
2023/04/21 12:45:39;;;;;;;11.32;2.83;;;20.30;33.60;;;;;;5047570;28;20021;-83
2023/04/21 12:48:05;;;;;;;11.82;2.90;;;20.30;34.30;;;;;;5050209;28;20029;-83
2023/04/21 12:50:31;;;;;;;9.48;2.75;;;20.10;35.70;;;;;;5049085;28;20035;-83
2023/04/21 12:52:57;;;;;;;4.70;3.13;;;20.00;35.80;;;;;;5048994;28;20116;-83
2023/04/21 12:55:23;;;;;;;6.28;2.92;;;20.10;36.30;;;;;;5082140;28;20028;-84